עמוד ראשי
תמונות לווין תחזית 15-יוםאקליםתחזית ים סופות טרופיות ברקים שדות תעופהשאלות נפוצות עלון אודות
מזג אוויר : אירופה אפריקה אמריקה הצפונית אמריקה הדרומית אסיה אוסטרליה-אוקיאניה אחרים
שפות איש קשר

שטוטגרט, גרמניה

Echterdingen

קו רוחב: 48-41N, קו אורך: 009-13E, גובה: 396מטר


METAR: EDDS 221920Z 26009KT CAVOK 09/03 Q1025 NOSIG
TAF: EDDS 221700Z 2218/2318 22010KT 9999 SCT025

זמן: 20:26 (19:26 UTC)

תצפית מזג אוויר נוכחית

הדו"ח נערך לפני 6דקות, בשעה 19:20 UTC
רוח 9קשר מכיוון מערב
טמפרטורת 9°C
לחות 66%
לחץ 1025 hPa
ראות 10 קילומטר או יותר
ללא עננים שבסיסם נמוך מ 1500 רגל או קומולונימבוס

שנה יחידות

תחזית

הדו"ח נערך לפני 2 שעות ו 26דקות, בשעה 17:00 UTC
תחזית בתוקף מ 22 ב 18 UTC עד 23 ב 18 UTC
רוח 10קשר מכיוון דרום-מערב
ראות 10 קילומטר או יותר
עננים פזורים בגובה 2500רגל
המידע באתר זה מותנה של תניית פטור
מזג אוויר : אירופה אפריקה אמריקה הצפונית אמריקה הדרומית אסיה אוסטרליה-אוקיאניה אחרים
תמונות לווין תחזית 15-יוםאקליםתחזית ים סופות טרופיות ברקים שדות תעופהשאלות נפוצות שפות איש קשר עלון אודות